sensor_id;sensor_type;location;lat;lon;timestamp;P1;durP1;ratioP1;P2;durP2;ratioP2
46561;SDS011;32289;42.688;23.330;2023-01-29T00:02:38;8.57;;;4.53;;
46561;SDS011;32289;42.688;23.330;2023-01-29T00:10:30;6.70;;;2.70;;
46561;SDS011;32289;42.688;23.330;2023-01-29T00:14:11;10.32;;;5.38;;
46561;SDS011;32289;42.688;23.330;2023-01-29T00:17:52;10.05;;;4.07;;
46561;SDS011;32289;42.688;23.330;2023-01-29T00:21:33;10.35;;;5.00;;
46561;SDS011;32289;42.688;23.330;2023-01-29T00:25:14;7.75;;;3.67;;
46561;SDS011;32289;42.688;23.330;2023-01-29T00:28:55;7.95;;;4.32;;
46561;SDS011;32289;42.688;23.330;2023-01-29T00:32:40;9.57;;;3.63;;
46561;SDS011;32289;42.688;23.330;2023-01-29T00:36:21;12.10;;;4.10;;
46561;SDS011;32289;42.688;23.330;2023-01-29T00:40:04;6.78;;;3.50;;
46561;SDS011;32289;42.688;23.330;2023-01-29T00:43:45;10.57;;;3.78;;
46561;SDS011;32289;42.688;23.330;2023-01-29T00:47:44;7.32;;;3.90;;
46561;SDS011;32289;42.688;23.330;2023-01-29T00:51:25;7.07;;;3.65;;
46561;SDS011;32289;42.688;23.330;2023-01-29T00:55:06;7.25;;;3.50;;
46561;SDS011;32289;42.688;23.330;2023-01-29T00:58:48;8.10;;;4.13;;
46561;SDS011;32289;42.688;23.330;2023-01-29T01:02:29;10.38;;;5.15;;
46561;SDS011;32289;42.688;23.330;2023-01-29T01:06:29;6.75;;;4.10;;
46561;SDS011;32289;42.688;23.330;2023-01-29T01:10:12;13.95;;;4.03;;
46561;SDS011;32289;42.688;23.330;2023-01-29T01:14:00;6.93;;;2.97;;
46561;SDS011;32289;42.688;23.330;2023-01-29T01:17:41;6.75;;;3.20;;
46561;SDS011;32289;42.688;23.330;2023-01-29T01:21:22;6.00;;;3.50;;
46561;SDS011;32289;42.688;23.330;2023-01-29T01:25:02;5.85;;;2.55;;
46561;SDS011;32289;42.688;23.330;2023-01-29T01:28:44;8.05;;;3.33;;
46561;SDS011;32289;42.688;23.330;2023-01-29T01:32:25;6.88;;;3.75;;
46561;SDS011;32289;42.688;23.330;2023-01-29T01:36:05;6.22;;;3.05;;
46561;SDS011;32289;42.688;23.330;2023-01-29T01:39:50;8.35;;;3.42;;
46561;SDS011;32289;42.688;23.330;2023-01-29T01:43:45;4.13;;;2.63;;
46561;SDS011;32289;42.688;23.330;2023-01-29T01:47:40;5.78;;;3.17;;
46561;SDS011;32289;42.688;23.330;2023-01-29T01:51:25;7.80;;;3.63;;
46561;SDS011;32289;42.688;23.330;2023-01-29T01:55:10;9.18;;;3.20;;
46561;SDS011;32289;42.688;23.330;2023-01-29T01:58:56;7.70;;;3.40;;
46561;SDS011;32289;42.688;23.330;2023-01-29T02:02:38;8.80;;;2.13;;
46561;SDS011;32289;42.688;23.330;2023-01-29T02:06:43;7.97;;;3.60;;
46561;SDS011;32289;42.688;23.330;2023-01-29T02:10:46;6.53;;;3.05;;
46561;SDS011;32289;42.688;23.330;2023-01-29T02:14:28;5.70;;;3.33;;
46561;SDS011;32289;42.688;23.330;2023-01-29T02:18:11;9.85;;;4.97;;
46561;SDS011;32289;42.688;23.330;2023-01-29T02:29:51;7.32;;;4.13;;
46561;SDS011;32289;42.688;23.330;2023-01-29T02:33:40;7.85;;;4.10;;
46561;SDS011;32289;42.688;23.330;2023-01-29T02:37:38;5.53;;;3.03;;
46561;SDS011;32289;42.688;23.330;2023-01-29T02:41:45;9.65;;;4.50;;
46561;SDS011;32289;42.688;23.330;2023-01-29T02:45:46;4.78;;;2.38;;
46561;SDS011;32289;42.688;23.330;2023-01-29T02:49:44;9.27;;;3.83;;
46561;SDS011;32289;42.688;23.330;2023-01-29T02:53:36;6.22;;;3.92;;
46561;SDS011;32289;42.688;23.330;2023-01-29T02:57:25;7.60;;;4.80;;
46561;SDS011;32289;42.688;23.330;2023-01-29T03:01:10;6.47;;;2.92;;
46561;SDS011;32289;42.688;23.330;2023-01-29T03:04:59;8.05;;;4.10;;
46561;SDS011;32289;42.688;23.330;2023-01-29T03:08:45;9.25;;;4.63;;
46561;SDS011;32289;42.688;23.330;2023-01-29T03:12:34;10.50;;;4.20;;
46561;SDS011;32289;42.688;23.330;2023-01-29T03:16:34;6.05;;;3.53;;
46561;SDS011;32289;42.688;23.330;2023-01-29T03:20:22;4.72;;;2.97;;
46561;SDS011;32289;42.688;23.330;2023-01-29T03:24:09;9.80;;;4.28;;
46561;SDS011;32289;42.688;23.330;2023-01-29T03:28:11;8.38;;;3.95;;
46561;SDS011;32289;42.688;23.330;2023-01-29T03:32:13;5.25;;;2.83;;
46561;SDS011;32289;42.688;23.330;2023-01-29T03:35:58;6.82;;;3.83;;
46561;SDS011;32289;42.688;23.330;2023-01-29T03:39:44;9.15;;;3.42;;
46561;SDS011;32289;42.688;23.330;2023-01-29T03:43:30;9.88;;;2.95;;
46561;SDS011;32289;42.688;23.330;2023-01-29T03:59:05;5.30;;;3.00;;
46561;SDS011;32289;42.688;23.330;2023-01-29T04:03:04;5.47;;;3.15;;
46561;SDS011;32289;42.688;23.330;2023-01-29T04:07:07;7.10;;;3.40;;
46561;SDS011;32289;42.688;23.330;2023-01-29T04:10:52;6.68;;;3.25;;
46561;SDS011;32289;42.688;23.330;2023-01-29T04:14:38;6.82;;;3.05;;
46561;SDS011;32289;42.688;23.330;2023-01-29T04:18:35;7.35;;;3.80;;
46561;SDS011;32289;42.688;23.330;2023-01-29T04:22:18;11.68;;;2.75;;
46561;SDS011;32289;42.688;23.330;2023-01-29T04:34:24;3.58;;;1.75;;
46561;SDS011;32289;42.688;23.330;2023-01-29T04:38:22;5.78;;;3.03;;
46561;SDS011;32289;42.688;23.330;2023-01-29T04:46:51;4.78;;;2.47;;
46561;SDS011;32289;42.688;23.330;2023-01-29T04:50:34;6.13;;;2.95;;
46561;SDS011;32289;42.688;23.330;2023-01-29T04:58:25;4.32;;;2.17;;
46561;SDS011;32289;42.688;23.330;2023-01-29T05:02:08;5.85;;;2.92;;
46561;SDS011;32289;42.688;23.330;2023-01-29T05:05:59;3.83;;;2.13;;
46561;SDS011;32289;42.688;23.330;2023-01-29T05:13:45;4.43;;;3.10;;
46561;SDS011;32289;42.688;23.330;2023-01-29T05:17:28;4.53;;;3.03;;
46561;SDS011;32289;42.688;23.330;2023-01-29T05:21:12;4.95;;;2.60;;
46561;SDS011;32289;42.688;23.330;2023-01-29T05:24:53;3.60;;;2.10;;
46561;SDS011;32289;42.688;23.330;2023-01-29T05:28:33;4.43;;;2.72;;
46561;SDS011;32289;42.688;23.330;2023-01-29T05:32:14;6.60;;;2.83;;
46561;SDS011;32289;42.688;23.330;2023-01-29T05:35:57;6.15;;;2.45;;
46561;SDS011;32289;42.688;23.330;2023-01-29T05:39:39;7.82;;;3.10;;
46561;SDS011;32289;42.688;23.330;2023-01-29T05:43:21;5.82;;;3.13;;
46561;SDS011;32289;42.688;23.330;2023-01-29T05:47:03;5.38;;;2.92;;
46561;SDS011;32289;42.688;23.330;2023-01-29T05:50:43;7.22;;;2.97;;
46561;SDS011;32289;42.688;23.330;2023-01-29T05:54:24;4.60;;;2.47;;
46561;SDS011;32289;42.688;23.330;2023-01-29T05:58:05;6.80;;;3.72;;
46561;SDS011;32289;42.688;23.330;2023-01-29T06:01:46;7.45;;;3.05;;
46561;SDS011;32289;42.688;23.330;2023-01-29T06:05:26;9.75;;;4.07;;
46561;SDS011;32289;42.688;23.330;2023-01-29T06:09:08;6.22;;;3.67;;
46561;SDS011;32289;42.688;23.330;2023-01-29T06:12:50;5.75;;;2.97;;
46561;SDS011;32289;42.688;23.330;2023-01-29T06:16:31;5.82;;;3.17;;
46561;SDS011;32289;42.688;23.330;2023-01-29T06:20:11;5.68;;;2.40;;
46561;SDS011;32289;42.688;23.330;2023-01-29T06:23:52;7.63;;;3.08;;
46561;SDS011;32289;42.688;23.330;2023-01-29T06:27:33;7.43;;;3.85;;
46561;SDS011;32289;42.688;23.330;2023-01-29T06:31:14;6.47;;;3.28;;
46561;SDS011;32289;42.688;23.330;2023-01-29T06:39:01;9.52;;;3.55;;
46561;SDS011;32289;42.688;23.330;2023-01-29T06:42:48;6.55;;;3.45;;
46561;SDS011;32289;42.688;23.330;2023-01-29T06:46:29;7.93;;;3.08;;
46561;SDS011;32289;42.688;23.330;2023-01-29T06:50:10;6.88;;;3.75;;
46561;SDS011;32289;42.688;23.330;2023-01-29T06:54:10;6.55;;;3.13;;
46561;SDS011;32289;42.688;23.330;2023-01-29T06:57:51;10.43;;;3.58;;
46561;SDS011;32289;42.688;23.330;2023-01-29T07:01:32;9.00;;;4.57;;
46561;SDS011;32289;42.688;23.330;2023-01-29T07:05:13;9.82;;;3.65;;
46561;SDS011;32289;42.688;23.330;2023-01-29T07:08:54;7.25;;;4.10;;
46561;SDS011;32289;42.688;23.330;2023-01-29T07:12:45;11.98;;;5.22;;
46561;SDS011;32289;42.688;23.330;2023-01-29T07:16:26;9.85;;;4.68;;
46561;SDS011;32289;42.688;23.330;2023-01-29T07:20:07;14.57;;;6.05;;
46561;SDS011;32289;42.688;23.330;2023-01-29T07:23:48;8.07;;;4.28;;
46561;SDS011;32289;42.688;23.330;2023-01-29T07:27:29;16.00;;;5.78;;
46561;SDS011;32289;42.688;23.330;2023-01-29T07:31:10;9.57;;;4.72;;
46561;SDS011;32289;42.688;23.330;2023-01-29T07:34:52;7.93;;;4.55;;
46561;SDS011;32289;42.688;23.330;2023-01-29T07:38:33;9.13;;;5.05;;
46561;SDS011;32289;42.688;23.330;2023-01-29T07:42:14;6.28;;;3.45;;
46561;SDS011;32289;42.688;23.330;2023-01-29T07:45:54;10.00;;;4.97;;
46561;SDS011;32289;42.688;23.330;2023-01-29T07:49:35;11.80;;;4.63;;
46561;SDS011;32289;42.688;23.330;2023-01-29T07:53:16;9.48;;;5.00;;
46561;SDS011;32289;42.688;23.330;2023-01-29T07:56:56;8.55;;;4.53;;
46561;SDS011;32289;42.688;23.330;2023-01-29T08:00:37;8.98;;;3.33;;
46561;SDS011;32289;42.688;23.330;2023-01-29T08:04:18;6.55;;;3.42;;
46561;SDS011;32289;42.688;23.330;2023-01-29T08:07:58;11.18;;;4.90;;
46561;SDS011;32289;42.688;23.330;2023-01-29T08:11:39;12.30;;;5.35;;
46561;SDS011;32289;42.688;23.330;2023-01-29T08:15:21;6.80;;;4.10;;
46561;SDS011;32289;42.688;23.330;2023-01-29T08:19:02;9.25;;;4.75;;
46561;SDS011;32289;42.688;23.330;2023-01-29T08:22:44;9.73;;;4.82;;
46561;SDS011;32289;42.688;23.330;2023-01-29T08:26:25;10.07;;;4.18;;
46561;SDS011;32289;42.688;23.330;2023-01-29T08:30:07;9.63;;;4.70;;
46561;SDS011;32289;42.688;23.330;2023-01-29T08:33:48;9.18;;;4.30;;
46561;SDS011;32289;42.688;23.330;2023-01-29T08:37:33;9.13;;;4.68;;
46561;SDS011;32289;42.688;23.330;2023-01-29T08:41:14;10.48;;;5.03;;
46561;SDS011;32289;42.688;23.330;2023-01-29T08:44:55;4.90;;;2.72;;
46561;SDS011;32289;42.688;23.330;2023-01-29T08:48:35;14.02;;;6.22;;
46561;SDS011;32289;42.688;23.330;2023-01-29T08:52:16;14.27;;;5.88;;
46561;SDS011;32289;42.688;23.330;2023-01-29T08:55:57;9.95;;;5.60;;
46561;SDS011;32289;42.688;23.330;2023-01-29T08:59:40;11.13;;;5.55;;
46561;SDS011;32289;42.688;23.330;2023-01-29T09:03:21;10.25;;;5.78;;
46561;SDS011;32289;42.688;23.330;2023-01-29T09:07:01;7.85;;;4.28;;
46561;SDS011;32289;42.688;23.330;2023-01-29T09:10:42;9.82;;;4.90;;
46561;SDS011;32289;42.688;23.330;2023-01-29T09:14:23;10.18;;;4.60;;
46561;SDS011;32289;42.688;23.330;2023-01-29T09:18:04;8.48;;;5.32;;
46561;SDS011;32289;42.688;23.330;2023-01-29T09:21:45;12.38;;;5.40;;
46561;SDS011;32289;42.688;23.330;2023-01-29T09:25:26;6.93;;;3.97;;
46561;SDS011;32289;42.688;23.330;2023-01-29T09:29:08;10.75;;;4.65;;
46561;SDS011;32289;42.688;23.330;2023-01-29T09:32:49;11.20;;;4.88;;
46561;SDS011;32289;42.688;23.330;2023-01-29T09:36:30;11.35;;;5.28;;
46561;SDS011;32289;42.688;23.330;2023-01-29T09:40:16;13.63;;;5.30;;
46561;SDS011;32289;42.688;23.330;2023-01-29T09:44:09;10.32;;;4.85;;
46561;SDS011;32289;42.688;23.330;2023-01-29T09:48:10;13.13;;;5.63;;
46561;SDS011;32289;42.688;23.330;2023-01-29T09:52:35;12.25;;;6.25;;
46561;SDS011;32289;42.688;23.330;2023-01-29T09:56:02;11.57;;;6.20;;
46561;SDS011;32289;42.688;23.330;2023-01-29T10:00:33;12.38;;;6.45;;
46561;SDS011;32289;42.688;23.330;2023-01-29T10:04:17;19.88;;;6.35;;
46561;SDS011;32289;42.688;23.330;2023-01-29T10:12:15;16.33;;;7.28;;
46561;SDS011;32289;42.688;23.330;2023-01-29T10:16:08;8.50;;;4.88;;
46561;SDS011;32289;42.688;23.330;2023-01-29T10:23:56;12.68;;;5.88;;
46561;SDS011;32289;42.688;23.330;2023-01-29T10:27:49;17.65;;;6.10;;
46561;SDS011;32289;42.688;23.330;2023-01-29T10:31:34;11.05;;;4.50;;
46561;SDS011;32289;42.688;23.330;2023-01-29T10:35:22;11.15;;;5.78;;
46561;SDS011;32289;42.688;23.330;2023-01-29T10:39:18;13.80;;;6.22;;
46561;SDS011;32289;42.688;23.330;2023-01-29T10:50:54;15.90;;;6.88;;
46561;SDS011;32289;42.688;23.330;2023-01-29T10:59:00;18.98;;;8.25;;
46561;SDS011;32289;42.688;23.330;2023-01-29T11:02:46;12.60;;;6.32;;
46561;SDS011;32289;42.688;23.330;2023-01-29T11:10:14;16.25;;;7.07;;
46561;SDS011;32289;42.688;23.330;2023-01-29T11:14:07;11.95;;;6.00;;
46561;SDS011;32289;42.688;23.330;2023-01-29T11:18:09;12.88;;;6.25;;
46561;SDS011;32289;42.688;23.330;2023-01-29T11:21:55;14.02;;;6.68;;
46561;SDS011;32289;42.688;23.330;2023-01-29T11:25:38;16.25;;;7.10;;
46561;SDS011;32289;42.688;23.330;2023-01-29T11:29:32;12.35;;;6.93;;
46561;SDS011;32289;42.688;23.330;2023-01-29T11:33:23;14.77;;;6.13;;
46561;SDS011;32289;42.688;23.330;2023-01-29T11:37:13;19.50;;;7.53;;
46561;SDS011;32289;42.688;23.330;2023-01-29T11:41:04;17.40;;;7.43;;
46561;SDS011;32289;42.688;23.330;2023-01-29T11:44:47;17.25;;;8.30;;
46561;SDS011;32289;42.688;23.330;2023-01-29T11:48:32;13.68;;;5.60;;
46561;SDS011;32289;42.688;23.330;2023-01-29T11:52:20;15.88;;;7.18;;
46561;SDS011;32289;42.688;23.330;2023-01-29T11:56:17;17.65;;;6.90;;
46561;SDS011;32289;42.688;23.330;2023-01-29T12:00:21;17.08;;;7.05;;
46561;SDS011;32289;42.688;23.330;2023-01-29T12:04:14;16.50;;;7.03;;
46561;SDS011;32289;42.688;23.330;2023-01-29T12:08:01;18.27;;;8.00;;
46561;SDS011;32289;42.688;23.330;2023-01-29T12:11:42;13.13;;;6.10;;
46561;SDS011;32289;42.688;23.330;2023-01-29T12:15:22;10.48;;;4.68;;
46561;SDS011;32289;42.688;23.330;2023-01-29T12:23:09;16.88;;;7.35;;
46561;SDS011;32289;42.688;23.330;2023-01-29T12:35:22;14.55;;;6.70;;
46561;SDS011;32289;42.688;23.330;2023-01-29T12:39:17;15.93;;;7.07;;
46561;SDS011;32289;42.688;23.330;2023-01-29T12:43:01;16.77;;;7.38;;
46561;SDS011;32289;42.688;23.330;2023-01-29T12:46:55;16.83;;;9.13;;
46561;SDS011;32289;42.688;23.330;2023-01-29T12:50:38;13.68;;;5.97;;
46561;SDS011;32289;42.688;23.330;2023-01-29T12:54:42;14.20;;;6.90;;
46561;SDS011;32289;42.688;23.330;2023-01-29T12:58:42;10.15;;;5.20;;
46561;SDS011;32289;42.688;23.330;2023-01-29T13:02:30;10.65;;;5.40;;
46561;SDS011;32289;42.688;23.330;2023-01-29T13:06:15;13.77;;;6.35;;
46561;SDS011;32289;42.688;23.330;2023-01-29T13:10:11;13.88;;;7.00;;
46561;SDS011;32289;42.688;23.330;2023-01-29T13:18:12;13.65;;;5.78;;
46561;SDS011;32289;42.688;23.330;2023-01-29T13:22:22;11.15;;;5.00;;
46561;SDS011;32289;42.688;23.330;2023-01-29T13:26:05;12.18;;;5.82;;
46561;SDS011;32289;42.688;23.330;2023-01-29T13:29:46;12.15;;;6.38;;
46561;SDS011;32289;42.688;23.330;2023-01-29T13:33:26;12.35;;;5.75;;
46561;SDS011;32289;42.688;23.330;2023-01-29T13:37:11;11.05;;;5.40;;
46561;SDS011;32289;42.688;23.330;2023-01-29T13:41:00;12.10;;;5.18;;
46561;SDS011;32289;42.688;23.330;2023-01-29T13:44:48;9.57;;;5.55;;
46561;SDS011;32289;42.688;23.330;2023-01-29T13:48:30;10.20;;;5.15;;
46561;SDS011;32289;42.688;23.330;2023-01-29T13:52:36;12.32;;;5.43;;
46561;SDS011;32289;42.688;23.330;2023-01-29T14:11:47;14.35;;;6.05;;
46561;SDS011;32289;42.688;23.330;2023-01-29T14:15:33;14.88;;;6.95;;
46561;SDS011;32289;42.688;23.330;2023-01-29T14:19:20;14.23;;;6.70;;
46561;SDS011;32289;42.688;23.330;2023-01-29T14:23:03;16.30;;;6.15;;
46561;SDS011;32289;42.688;23.330;2023-01-29T14:26:46;11.07;;;6.20;;
46561;SDS011;32289;42.688;23.330;2023-01-29T14:30:29;22.67;;;7.65;;
46561;SDS011;32289;42.688;23.330;2023-01-29T14:38:04;12.88;;;6.28;;
46561;SDS011;32289;42.688;23.330;2023-01-29T14:41:46;17.02;;;6.63;;
46561;SDS011;32289;42.688;23.330;2023-01-29T14:49:11;14.85;;;7.10;;
46561;SDS011;32289;42.688;23.330;2023-01-29T14:57:12;12.98;;;6.45;;
46561;SDS011;32289;42.688;23.330;2023-01-29T15:00:56;8.52;;;4.30;;
46561;SDS011;32289;42.688;23.330;2023-01-29T15:04:43;17.88;;;6.28;;
46561;SDS011;32289;42.688;23.330;2023-01-29T15:16:20;12.23;;;6.35;;
46561;SDS011;32289;42.688;23.330;2023-01-29T15:24:11;15.68;;;7.78;;
46561;SDS011;32289;42.688;23.330;2023-01-29T15:27:53;17.90;;;8.15;;
46561;SDS011;32289;42.688;23.330;2023-01-29T15:31:35;16.42;;;7.75;;
46561;SDS011;32289;42.688;23.330;2023-01-29T15:35:34;9.85;;;5.35;;
46561;SDS011;32289;42.688;23.330;2023-01-29T15:39:17;14.48;;;6.10;;
46561;SDS011;32289;42.688;23.330;2023-01-29T15:43:00;18.08;;;7.40;;
46561;SDS011;32289;42.688;23.330;2023-01-29T15:46:41;20.73;;;7.80;;
46561;SDS011;32289;42.688;23.330;2023-01-29T15:50:27;15.00;;;5.53;;
46561;SDS011;32289;42.688;23.330;2023-01-29T15:54:09;16.50;;;6.63;;
46561;SDS011;32289;42.688;23.330;2023-01-29T15:57:54;12.18;;;5.65;;
46561;SDS011;32289;42.688;23.330;2023-01-29T16:01:36;20.35;;;7.43;;
46561;SDS011;32289;42.688;23.330;2023-01-29T16:05:18;17.65;;;6.20;;
46561;SDS011;32289;42.688;23.330;2023-01-29T16:09:02;23.17;;;7.30;;
46561;SDS011;32289;42.688;23.330;2023-01-29T16:12:44;11.63;;;6.13;;
46561;SDS011;32289;42.688;23.330;2023-01-29T16:16:30;13.30;;;6.32;;
46561;SDS011;32289;42.688;23.330;2023-01-29T16:24:20;13.52;;;5.57;;
46561;SDS011;32289;42.688;23.330;2023-01-29T16:28:03;12.77;;;6.38;;
46561;SDS011;32289;42.688;23.330;2023-01-29T16:31:46;15.57;;;6.93;;
46561;SDS011;32289;42.688;23.330;2023-01-29T16:35:29;16.08;;;6.47;;
46561;SDS011;32289;42.688;23.330;2023-01-29T16:39:22;13.57;;;6.25;;
46561;SDS011;32289;42.688;23.330;2023-01-29T16:50:44;15.43;;;6.40;;
46561;SDS011;32289;42.688;23.330;2023-01-29T16:54:26;13.50;;;5.72;;
46561;SDS011;32289;42.688;23.330;2023-01-29T17:02:01;10.02;;;4.40;;
46561;SDS011;32289;42.688;23.330;2023-01-29T17:05:43;15.05;;;6.63;;
46561;SDS011;32289;42.688;23.330;2023-01-29T17:09:29;15.32;;;6.65;;
46561;SDS011;32289;42.688;23.330;2023-01-29T17:17:17;14.55;;;7.60;;
46561;SDS011;32289;42.688;23.330;2023-01-29T17:20:57;11.63;;;6.40;;
46561;SDS011;32289;42.688;23.330;2023-01-29T17:24:39;15.05;;;6.20;;
46561;SDS011;32289;42.688;23.330;2023-01-29T17:28:23;19.63;;;7.13;;
46561;SDS011;32289;42.688;23.330;2023-01-29T17:32:07;18.98;;;7.28;;
46561;SDS011;32289;42.688;23.330;2023-01-29T17:35:48;16.63;;;6.97;;
46561;SDS011;32289;42.688;23.330;2023-01-29T17:39:32;20.17;;;7.68;;
46561;SDS011;32289;42.688;23.330;2023-01-29T17:43:13;11.88;;;5.85;;
46561;SDS011;32289;42.688;23.330;2023-01-29T17:46:53;13.63;;;5.45;;
46561;SDS011;32289;42.688;23.330;2023-01-29T17:50:35;19.75;;;6.68;;
46561;SDS011;32289;42.688;23.330;2023-01-29T17:54:19;16.27;;;7.35;;
46561;SDS011;32289;42.688;23.330;2023-01-29T17:58:00;17.25;;;7.22;;
46561;SDS011;32289;42.688;23.330;2023-01-29T18:01:41;15.98;;;6.93;;
46561;SDS011;32289;42.688;23.330;2023-01-29T18:05:22;16.63;;;6.65;;
46561;SDS011;32289;42.688;23.330;2023-01-29T18:09:03;15.48;;;6.93;;
46561;SDS011;32289;42.688;23.330;2023-01-29T18:12:44;15.82;;;7.05;;
46561;SDS011;32289;42.688;23.330;2023-01-29T18:16:25;12.38;;;4.75;;
46561;SDS011;32289;42.688;23.330;2023-01-29T18:20:24;15.20;;;6.43;;
46561;SDS011;32289;42.688;23.330;2023-01-29T18:24:05;17.77;;;7.25;;
46561;SDS011;32289;42.688;23.330;2023-01-29T18:27:45;21.13;;;7.88;;
46561;SDS011;32289;42.688;23.330;2023-01-29T18:31:26;17.98;;;6.88;;
46561;SDS011;32289;42.688;23.330;2023-01-29T18:35:07;14.38;;;6.15;;
46561;SDS011;32289;42.688;23.330;2023-01-29T18:38:48;13.52;;;6.95;;
46561;SDS011;32289;42.688;23.330;2023-01-29T18:42:30;15.57;;;7.95;;
46561;SDS011;32289;42.688;23.330;2023-01-29T18:46:12;15.50;;;6.25;;
46561;SDS011;32289;42.688;23.330;2023-01-29T18:49:53;17.98;;;6.72;;
46561;SDS011;32289;42.688;23.330;2023-01-29T18:53:34;16.83;;;7.13;;
46561;SDS011;32289;42.688;23.330;2023-01-29T18:57:14;13.60;;;7.65;;
46561;SDS011;32289;42.688;23.330;2023-01-29T19:00:55;18.67;;;7.47;;
46561;SDS011;32289;42.688;23.330;2023-01-29T19:04:36;13.73;;;6.10;;
46561;SDS011;32289;42.688;23.330;2023-01-29T19:08:16;17.92;;;6.65;;
46561;SDS011;32289;42.688;23.330;2023-01-29T19:11:57;13.00;;;6.57;;
46561;SDS011;32289;42.688;23.330;2023-01-29T19:15:41;20.73;;;7.20;;
46561;SDS011;32289;42.688;23.330;2023-01-29T19:19:27;15.00;;;6.95;;
46561;SDS011;32289;42.688;23.330;2023-01-29T19:23:08;18.42;;;7.25;;
46561;SDS011;32289;42.688;23.330;2023-01-29T19:26:48;13.20;;;5.43;;
46561;SDS011;32289;42.688;23.330;2023-01-29T19:30:29;24.50;;;8.45;;
46561;SDS011;32289;42.688;23.330;2023-01-29T19:34:13;12.85;;;7.07;;
46561;SDS011;32289;42.688;23.330;2023-01-29T19:37:53;18.88;;;8.20;;
46561;SDS011;32289;42.688;23.330;2023-01-29T19:41:34;15.40;;;8.50;;
46561;SDS011;32289;42.688;23.330;2023-01-29T19:45:16;24.20;;;8.77;;
46561;SDS011;32289;42.688;23.330;2023-01-29T19:48:58;18.33;;;8.15;;
46561;SDS011;32289;42.688;23.330;2023-01-29T19:52:39;13.82;;;6.07;;
46561;SDS011;32289;42.688;23.330;2023-01-29T19:56:22;17.48;;;8.00;;
46561;SDS011;32289;42.688;23.330;2023-01-29T20:00:03;22.77;;;9.25;;
46561;SDS011;32289;42.688;23.330;2023-01-29T20:03:45;22.83;;;9.15;;
46561;SDS011;32289;42.688;23.330;2023-01-29T20:07:27;16.85;;;8.30;;
46561;SDS011;32289;42.688;23.330;2023-01-29T20:11:08;19.60;;;7.90;;
46561;SDS011;32289;42.688;23.330;2023-01-29T20:14:52;19.38;;;7.72;;
46561;SDS011;32289;42.688;23.330;2023-01-29T20:18:32;19.60;;;8.60;;
46561;SDS011;32289;42.688;23.330;2023-01-29T20:22:13;18.40;;;6.95;;
46561;SDS011;32289;42.688;23.330;2023-01-29T20:25:57;16.15;;;8.35;;
46561;SDS011;32289;42.688;23.330;2023-01-29T20:29:38;17.05;;;6.47;;
46561;SDS011;32289;42.688;23.330;2023-01-29T20:33:19;21.70;;;8.45;;
46561;SDS011;32289;42.688;23.330;2023-01-29T20:37:03;16.38;;;6.65;;
46561;SDS011;32289;42.688;23.330;2023-01-29T20:40:44;12.73;;;5.97;;
46561;SDS011;32289;42.688;23.330;2023-01-29T20:44:24;13.38;;;5.75;;
46561;SDS011;32289;42.688;23.330;2023-01-29T20:48:05;21.38;;;8.55;;
46561;SDS011;32289;42.688;23.330;2023-01-29T20:51:47;18.17;;;6.25;;
46561;SDS011;32289;42.688;23.330;2023-01-29T20:55:28;10.95;;;5.45;;
46561;SDS011;32289;42.688;23.330;2023-01-29T20:59:16;18.50;;;8.02;;
46561;SDS011;32289;42.688;23.330;2023-01-29T21:03:14;22.38;;;8.82;;
46561;SDS011;32289;42.688;23.330;2023-01-29T21:06:55;17.13;;;6.38;;
46561;SDS011;32289;42.688;23.330;2023-01-29T21:10:36;17.75;;;7.80;;
46561;SDS011;32289;42.688;23.330;2023-01-29T21:14:16;17.48;;;7.65;;
46561;SDS011;32289;42.688;23.330;2023-01-29T21:17:57;20.05;;;7.93;;
46561;SDS011;32289;42.688;23.330;2023-01-29T21:21:42;20.15;;;7.32;;
46561;SDS011;32289;42.688;23.330;2023-01-29T21:25:22;13.27;;;7.00;;
46561;SDS011;32289;42.688;23.330;2023-01-29T21:29:03;13.20;;;6.40;;
46561;SDS011;32289;42.688;23.330;2023-01-29T21:32:44;16.25;;;7.32;;
46561;SDS011;32289;42.688;23.330;2023-01-29T21:36:25;14.57;;;5.60;;
46561;SDS011;32289;42.688;23.330;2023-01-29T21:40:14;21.45;;;8.50;;
46561;SDS011;32289;42.688;23.330;2023-01-29T21:43:55;17.17;;;6.45;;
46561;SDS011;32289;42.688;23.330;2023-01-29T21:47:35;24.30;;;8.35;;
46561;SDS011;32289;42.688;23.330;2023-01-29T21:51:16;17.08;;;7.75;;
46561;SDS011;32289;42.688;23.330;2023-01-29T21:54:57;17.58;;;8.18;;
46561;SDS011;32289;42.688;23.330;2023-01-29T21:58:38;28.17;;;10.85;;
46561;SDS011;32289;42.688;23.330;2023-01-29T22:02:20;22.73;;;6.25;;
46561;SDS011;32289;42.688;23.330;2023-01-29T22:06:02;21.15;;;6.43;;
46561;SDS011;32289;42.688;23.330;2023-01-29T22:09:43;16.30;;;8.30;;
46561;SDS011;32289;42.688;23.330;2023-01-29T22:13:23;14.00;;;6.32;;
46561;SDS011;32289;42.688;23.330;2023-01-29T22:17:04;15.75;;;7.13;;
46561;SDS011;32289;42.688;23.330;2023-01-29T22:20:51;20.40;;;8.15;;
46561;SDS011;32289;42.688;23.330;2023-01-29T22:24:32;10.88;;;5.03;;
46561;SDS011;32289;42.688;23.330;2023-01-29T22:28:13;15.93;;;7.65;;
46561;SDS011;32289;42.688;23.330;2023-01-29T22:31:57;21.73;;;7.57;;
46561;SDS011;32289;42.688;23.330;2023-01-29T22:35:38;22.42;;;7.28;;
46561;SDS011;32289;42.688;23.330;2023-01-29T22:39:19;22.58;;;8.68;;
46561;SDS011;32289;42.688;23.330;2023-01-29T22:42:59;13.40;;;7.50;;
46561;SDS011;32289;42.688;23.330;2023-01-29T22:46:41;19.15;;;9.18;;
46561;SDS011;32289;42.688;23.330;2023-01-29T22:50:22;20.85;;;8.35;;
46561;SDS011;32289;42.688;23.330;2023-01-29T22:54:02;18.65;;;7.68;;
46561;SDS011;32289;42.688;23.330;2023-01-29T22:57:46;14.23;;;6.00;;
46561;SDS011;32289;42.688;23.330;2023-01-29T23:01:29;20.23;;;7.85;;
46561;SDS011;32289;42.688;23.330;2023-01-29T23:05:10;20.10;;;7.28;;
46561;SDS011;32289;42.688;23.330;2023-01-29T23:08:51;22.23;;;10.45;;
46561;SDS011;32289;42.688;23.330;2023-01-29T23:12:32;28.35;;;10.00;;
46561;SDS011;32289;42.688;23.330;2023-01-29T23:16:14;21.70;;;7.70;;
46561;SDS011;32289;42.688;23.330;2023-01-29T23:19:56;16.17;;;6.75;;
46561;SDS011;32289;42.688;23.330;2023-01-29T23:23:37;21.77;;;7.63;;
46561;SDS011;32289;42.688;23.330;2023-01-29T23:27:18;17.98;;;6.70;;
46561;SDS011;32289;42.688;23.330;2023-01-29T23:30:59;12.30;;;4.65;;
46561;SDS011;32289;42.688;23.330;2023-01-29T23:34:41;8.40;;;4.20;;
46561;SDS011;32289;42.688;23.330;2023-01-29T23:38:21;10.70;;;5.47;;
46561;SDS011;32289;42.688;23.330;2023-01-29T23:42:02;13.20;;;4.97;;
46561;SDS011;32289;42.688;23.330;2023-01-29T23:45:43;10.30;;;5.57;;
46561;SDS011;32289;42.688;23.330;2023-01-29T23:49:24;13.70;;;4.78;;
46561;SDS011;32289;42.688;23.330;2023-01-29T23:53:05;9.88;;;5.57;;
46561;SDS011;32289;42.688;23.330;2023-01-29T23:56:46;12.10;;;5.25;;
